Time;durP1;ratioP1;P1;durP2;ratioP2;P2;SDS_P1;SDS_P2;PMS_P1;PMS_P2;Temp;Humidity;BMP_temperature;BMP_pressure;BME280_temperature;BME280_humidity;BME280_pressure;Samples;Min_cycle;Max_cycle;Signal;HPM_P1;HPM_P2
2021/12/10 00:01:53;;;;;;;7.05;4.07;;;1.90;99.90;;;;;;5056795;28;20026;-73
2021/12/10 00:04:22;;;;;;;6.28;4.10;;;1.90;99.90;;;;;;5074669;28;20027;-73
2021/12/10 00:06:54;;;;;;;7.28;4.35;;;1.90;99.90;;;;;;5074471;28;20082;-73
2021/12/10 00:09:27;;;;;;;7.03;4.60;;;1.90;99.90;;;;;;5074728;28;20025;-72
2021/12/10 00:12:03;;;;;;;7.10;4.25;;;1.90;99.90;;;;;;5056704;28;20116;-73
2021/12/10 00:14:31;;;;;;;6.60;3.67;;;1.90;99.90;;;;;;5056569;28;20028;-73
2021/12/10 00:16:59;;;;;;;7.57;3.92;;;1.90;99.90;;;;;;5074424;28;20456;-73
2021/12/10 00:19:32;;;;;;;6.85;3.53;;;1.80;99.90;;;;;;5056660;28;20043;-73
2021/12/10 00:22:00;;;;;;;7.57;4.05;;;1.80;99.90;;;;;;5074381;28;20108;-73
2021/12/10 00:24:29;;;;;;;5.72;3.58;;;1.90;99.90;;;;;;5074361;28;20031;-72
2021/12/10 00:26:57;;;;;;;8.50;4.15;;;1.90;99.90;;;;;;5073998;28;20484;-73
2021/12/10 00:29:24;;;;;;;5.43;3.50;;;1.80;99.90;;;;;;5073891;28;20050;-73
2021/12/10 00:32:02;;;;;;;4.20;3.08;;;1.80;99.90;;;;;;5074394;28;20047;-73
2021/12/10 00:34:42;;;;;;;4.95;3.58;;;1.80;99.90;;;;;;5055923;28;20024;-73
2021/12/10 00:37:12;;;;;;;5.20;3.60;;;1.80;99.90;;;;;;5074283;28;20029;-73
2021/12/10 00:39:45;;;;;;;5.10;3.58;;;1.80;99.90;;;;;;5074292;28;20032;-72
2021/12/10 00:42:16;;;;;;;6.93;4.03;;;1.80;99.90;;;;;;5073840;28;20027;-73
2021/12/10 00:44:42;;;;;;;8.18;4.00;;;1.80;99.90;;;;;;5056334;28;20062;-72
2021/12/10 00:47:08;;;;;;;7.82;4.38;;;1.90;99.90;;;;;;5073956;28;20487;-73
2021/12/10 00:49:35;;;;;;;7.25;4.53;;;1.90;99.90;;;;;;5073926;28;20103;-73
2021/12/10 00:52:02;;;;;;;7.03;4.05;;;1.90;99.90;;;;;;5055879;28;20491;-73
2021/12/10 00:54:28;;;;;;;5.78;3.42;;;1.90;99.90;;;;;;5073611;28;20496;-72
2021/12/10 00:56:54;;;;;;;5.85;4.10;;;1.90;99.90;;;;;;5055869;28;20028;-73
2021/12/10 00:59:20;;;;;;;7.47;4.57;;;1.90;99.90;;;;;;5073773;28;20377;-73
2021/12/10 01:01:48;;;;;;;6.10;3.75;;;1.90;99.90;;;;;;5055739;28;20020;-73
2021/12/10 01:04:28;;;;;;;8.77;4.20;;;1.90;99.90;;;;;;5056622;28;20439;-73
2021/12/10 01:06:56;;;;;;;6.43;3.83;;;1.90;99.90;;;;;;5073765;28;20025;-73
2021/12/10 01:09:43;;;;;;;5.82;3.85;;;1.90;99.90;;;;;;5073742;28;20024;-73
2021/12/10 01:12:22;;;;;;;7.90;3.88;;;1.90;99.90;;;;;;5073684;28;20070;-73
2021/12/10 01:15:20;;;;;;;6.68;4.07;;;1.90;99.90;;;;;;5055751;28;20025;-73
2021/12/10 01:23:52;;;;;;;6.25;4.03;;;1.80;99.90;;;;;;5073439;28;20514;-72
2021/12/10 01:27:10;;;;;;;6.38;3.22;;;1.80;99.90;;;;;;5055352;28;20028;-73
2021/12/10 01:29:35;;;;;;;5.30;3.97;;;1.80;99.90;;;;;;5070111;28;20041;-73
2021/12/10 01:32:06;;;;;;;5.60;3.42;;;1.80;99.90;;;;;;5073757;28;20064;-73
2021/12/10 01:34:32;;;;;;;5.45;3.60;;;1.90;99.90;;;;;;5055539;28;20127;-73
2021/12/10 01:36:59;;;;;;;6.13;3.50;;;1.90;99.90;;;;;;5073468;28;20100;-73
2021/12/10 01:39:29;;;;;;;7.75;3.78;;;1.90;99.90;;;;;;5056108;28;20190;-73
2021/12/10 01:42:11;;;;;;;7.93;4.20;;;1.90;99.90;;;;;;5073430;28;20025;-73
2021/12/10 01:44:42;;;;;;;6.38;3.15;;;1.90;99.90;;;;;;5073160;28;20361;-73
2021/12/10 01:47:10;;;;;;;6.78;3.92;;;1.80;99.90;;;;;;5076612;28;20020;-73
2021/12/10 01:49:37;;;;;;;9.00;4.18;;;1.80;99.90;;;;;;5059919;28;20040;-73
2021/12/10 01:52:05;;;;;;;8.27;4.95;;;1.90;99.90;;;;;;5059362;28;20028;-73
2021/12/10 01:54:36;;;;;;;6.60;4.53;;;1.80;99.90;;;;;;5077221;28;20036;-73
2021/12/10 01:57:05;;;;;;;6.38;3.47;;;1.90;99.90;;;;;;5077205;28;20032;-73
2021/12/10 01:59:33;;;;;;;6.70;4.40;;;1.90;99.90;;;;;;5076666;28;20040;-73
2021/12/10 02:02:05;;;;;;;6.80;3.85;;;1.90;99.90;;;;;;5059319;28;20056;-73
2021/12/10 02:04:33;;;;;;;6.03;4.35;;;1.90;99.90;;;;;;5059240;28;20481;-73
2021/12/10 02:07:00;;;;;;;7.28;4.13;;;1.90;99.90;;;;;;5059264;28;20020;-73
2021/12/10 02:09:26;;;;;;;7.35;4.32;;;1.90;99.90;;;;;;5076878;28;20115;-72
2021/12/10 02:11:52;;;;;;;6.55;4.05;;;1.90;99.90;;;;;;5058948;28;20021;-73
2021/12/10 02:14:19;;;;;;;12.43;4.70;;;1.90;99.90;;;;;;5076806;28;20032;-73
2021/12/10 02:16:47;;;;;;;7.38;4.68;;;1.90;99.90;;;;;;5076811;28;20020;-73
2021/12/10 02:19:14;;;;;;;8.43;4.18;;;1.90;99.90;;;;;;5076630;28;20036;-73
2021/12/10 02:21:40;;;;;;;9.25;5.18;;;2.00;99.90;;;;;;5076825;28;20028;-73
2021/12/10 02:24:08;;;;;;;10.23;5.55;;;2.00;99.90;;;;;;5058789;28;20025;-73
2021/12/10 02:26:44;;;;;;;8.60;4.13;;;2.00;99.90;;;;;;5076595;28;20103;-73
2021/12/10 02:29:11;;;;;;;6.45;3.97;;;2.00;99.90;;;;;;5076665;28;20036;-73
2021/12/10 02:31:37;;;;;;;8.48;4.07;;;1.90;99.90;;;;;;5076085;28;20099;-73
2021/12/10 02:34:04;;;;;;;8.20;4.30;;;2.00;99.90;;;;;;5076713;28;20468;-72
2021/12/10 02:36:30;;;;;;;6.72;4.40;;;2.00;99.90;;;;;;5058469;28;20025;-72
2021/12/10 02:38:57;;;;;;;7.78;4.72;;;2.00;99.90;;;;;;5076298;28;20531;-72
2021/12/10 02:41:27;;;;;;;7.97;3.97;;;1.90;99.90;;;;;;5076473;28;20016;-72
2021/12/10 02:43:54;;;;;;;6.80;4.47;;;1.90;99.90;;;;;;5058523;28;20106;-72
2021/12/10 02:46:20;;;;;;;5.80;3.78;;;2.00;99.90;;;;;;5076338;28;20096;-73
2021/12/10 02:48:46;;;;;;;7.43;4.10;;;2.00;99.90;;;;;;5058595;28;20028;-73
2021/12/10 02:51:12;;;;;;;5.90;3.47;;;2.00;99.90;;;;;;5077428;28;20108;-73
2021/12/10 02:53:43;;;;;;;8.20;4.60;;;1.90;99.90;;;;;;5060500;28;20085;-73
2021/12/10 02:56:10;;;;;;;7.63;3.65;;;1.80;99.90;;;;;;5078670;28;20108;-73
2021/12/10 02:58:36;;;;;;;8.98;5.07;;;1.80;99.90;;;;;;5058379;28;20035;-73
2021/12/10 03:01:13;;;;;;;7.72;4.00;;;1.80;99.90;;;;;;5058237;28;20446;-73
2021/12/10 03:03:40;;;;;;;6.63;3.72;;;1.80;99.90;;;;;;5075807;28;20032;-73
2021/12/10 03:06:11;;;;;;;5.80;2.97;;;1.80;99.90;;;;;;5075857;28;20021;-73
2021/12/10 03:08:39;;;;;;;8.00;3.63;;;1.70;99.90;;;;;;5057943;28;20032;-73
2021/12/10 03:11:05;;;;;;;7.15;3.25;;;1.70;99.90;;;;;;5058012;28;20060;-73
2021/12/10 03:13:32;;;;;;;9.27;3.92;;;1.60;99.90;;;;;;5076018;28;20445;-73
2021/12/10 03:15:58;;;;;;;6.78;3.70;;;1.70;99.90;;;;;;5057781;28;20028;-73
2021/12/10 03:18:24;;;;;;;7.88;3.75;;;1.70;99.90;;;;;;5075664;28;20130;-73
2021/12/10 03:20:50;;;;;;;6.22;3.30;;;1.70;99.90;;;;;;5075676;28;20032;-73
2021/12/10 03:23:17;;;;;;;7.43;3.97;;;1.70;99.90;;;;;;5075686;28;20100;-73
2021/12/10 03:25:43;;;;;;;5.63;3.47;;;1.60;99.90;;;;;;5075459;28;20111;-73
2021/12/10 03:28:10;;;;;;;6.00;3.63;;;1.60;99.90;;;;;;5075451;28;20030;-73
2021/12/10 03:30:43;;;;;;;8.55;3.22;;;1.70;99.90;;;;;;5075040;28;20504;-73
2021/12/10 03:33:10;;;;;;;4.90;3.15;;;1.70;99.90;;;;;;5075443;28;20389;-73
2021/12/10 03:35:42;;;;;;;3.95;2.60;;;1.80;99.90;;;;;;5075005;28;20429;-73
2021/12/10 03:38:11;;;;;;;6.47;2.95;;;1.70;99.90;;;;;;5075257;28;20029;-73
2021/12/10 03:40:37;;;;;;;9.27;3.58;;;1.70;99.90;;;;;;5057392;28;20041;-73
2021/12/10 03:43:04;;;;;;;5.00;2.95;;;1.70;99.90;;;;;;5057193;28;20032;-73
2021/12/10 03:45:37;;;;;;;5.97;3.67;;;1.70;99.90;;;;;;5057180;28;20021;-73
2021/12/10 03:48:10;;;;;;;6.45;3.17;;;1.60;99.90;;;;;;5056957;28;20059;-73
2021/12/10 03:50:35;;;;;;;5.65;3.47;;;1.60;99.90;;;;;;5074866;28;20048;-73
2021/12/10 03:53:02;;;;;;;3.67;2.60;;;1.60;99.90;;;;;;5075044;28;20060;-73
2021/12/10 03:55:28;;;;;;;4.50;3.47;;;1.50;99.90;;;;;;5057297;28;20032;-73
2021/12/10 03:57:56;;;;;;;6.43;3.17;;;1.40;99.90;;;;;;5056930;28;20024;-73
2021/12/10 04:00:25;;;;;;;6.47;2.92;;;1.30;99.90;;;;;;5056816;28;20028;-73
2021/12/10 04:02:51;;;;;;;7.00;3.63;;;1.20;99.90;;;;;;5057090;28;20119;-73
2021/12/10 04:05:17;;;;;;;6.40;3.75;;;1.20;99.90;;;;;;5057132;28;20479;-73
2021/12/10 04:07:43;;;;;;;4.90;3.10;;;1.10;99.90;;;;;;5074414;28;20056;-73
2021/12/10 04:10:12;;;;;;;6.07;3.03;;;1.00;99.90;;;;;;5074179;28;20040;-73
2021/12/10 04:12:37;;;;;;;;;;;0.90;99.90;;;;;;5057031;28;20097;-73
2021/12/10 04:15:05;;;;;;;4.45;2.55;;;0.80;99.90;;;;;;5056524;28;19962;-73
2021/12/10 04:17:32;;;;;;;9.23;3.00;;;0.70;99.90;;;;;;5074515;28;20070;-73
2021/12/10 04:19:58;;;;;;;4.53;3.55;;;0.50;99.90;;;;;;5074319;28;20047;-73
2021/12/10 04:22:25;;;;;;;7.18;2.65;;;0.50;99.90;;;;;;5074392;28;20024;-73
2021/12/10 04:24:52;;;;;;;5.82;2.80;;;0.40;99.90;;;;;;5056757;28;20050;-73
2021/12/10 04:27:18;;;;;;;6.43;3.40;;;0.40;99.90;;;;;;5056405;28;20376;-74
2021/12/10 04:29:46;;;;;;;6.85;3.03;;;0.30;99.90;;;;;;5056487;28;20035;-73
2021/12/10 04:32:13;;;;;;;7.07;3.92;;;0.20;99.90;;;;;;5091338;28;20044;-74
2021/12/10 04:34:39;;;;;;;5.00;3.22;;;0.20;99.90;;;;;;5092819;28;20039;-74
2021/12/10 04:37:08;;;;;;;5.60;3.15;;;0.10;99.90;;;;;;5093142;28;20391;-73
2021/12/10 04:39:37;;;;;;;;;;;0.10;99.90;;;;;;5094708;28;20115;-73
2021/12/10 04:42:03;;;;;;;;;;;0.00;99.90;;;;;;5093474;28;19999;-74
2021/12/10 04:44:29;;;;;;;7.63;3.67;;;0.00;99.90;;;;;;5093049;28;19930;-74
2021/12/10 04:46:55;;;;;;;11.35;3.53;;;0.00;99.90;;;;;;5094244;28;20466;-74
2021/12/10 04:49:21;;;;;;;13.27;3.55;;;0.00;99.90;;;;;;5092957;28;20024;-74
2021/12/10 04:51:54;;;;;;;8.70;3.60;;;0.00;99.90;;;;;;5092878;28;20406;-74
2021/12/10 04:54:39;;;;;;;8.25;4.07;;;0.00;99.90;;;;;;5094425;28;20028;-74
2021/12/10 04:57:06;;;;;;;12.10;3.70;;;0.00;99.90;;;;;;5094212;28;20024;-74
2021/12/10 04:59:34;;;;;;;8.15;3.67;;;0.00;99.90;;;;;;5092757;28;20035;-74
2021/12/10 05:02:03;;;;;;;12.10;3.38;;;0.00;99.90;;;;;;5094077;28;20065;-74
2021/12/10 05:04:29;;;;;;;11.23;3.05;;;-0.10;99.90;;;;;;5092722;28;20073;-73
2021/12/10 05:06:55;;;;;;;7.07;2.92;;;-0.10;99.90;;;;;;5094004;28;20052;-74
2021/12/10 05:09:22;;;;;;;7.38;3.28;;;-0.10;99.90;;;;;;5093825;28;20032;-73
2021/12/10 05:11:49;;;;;;;6.97;3.58;;;-0.20;99.90;;;;;;5092669;28;20024;-75
2021/12/10 05:14:16;;;;;;;6.68;2.90;;;-0.30;99.90;;;;;;5092716;28;20024;-74
2021/12/10 05:16:45;;;;;;;9.13;3.20;;;-0.30;99.90;;;;;;5093876;28;20024;-75
2021/12/10 05:19:16;;;;;;;14.90;3.30;;;-0.40;99.90;;;;;;5093473;28;20535;-75
2021/12/10 05:21:47;;;;;;;5.80;3.45;;;-0.40;99.90;;;;;;5095262;28;20051;-70
2021/12/10 05:24:14;;;;;;;6.82;3.60;;;-0.40;99.90;;;;;;5097829;28;20069;-73
2021/12/10 05:26:40;;;;;;;7.43;3.00;;;-0.40;99.90;;;;;;5097754;28;20028;-73
2021/12/10 05:29:07;;;;;;;5.30;2.90;;;-0.40;99.90;;;;;;5098133;28;20031;-73
2021/12/10 05:31:36;;;;;;;8.98;3.45;;;-0.40;99.90;;;;;;5083353;28;20480;-73
2021/12/10 05:34:03;;;;;;;8.52;3.30;;;-0.40;99.90;;;;;;5077641;28;20025;-73
2021/12/10 05:36:29;;;;;;;6.90;3.13;;;-0.50;99.90;;;;;;5059557;28;20465;-73
2021/12/10 05:38:55;;;;;;;5.07;2.90;;;-0.50;99.90;;;;;;5077127;28;20491;-74
2021/12/10 05:41:21;;;;;;;5.03;3.00;;;-0.50;99.90;;;;;;5077463;28;20027;-73
2021/12/10 05:43:46;;;;;;;8.70;4.30;;;-0.60;99.90;;;;;;5077261;28;20078;-73
2021/12/10 05:46:12;;;;;;;10.13;3.30;;;-0.60;99.90;;;;;;5059373;28;20029;-73
2021/12/10 05:48:40;;;;;;;11.18;4.40;;;-0.60;99.90;;;;;;5059490;28;20548;-74
2021/12/10 05:51:05;;;;;;;6.07;3.67;;;-0.60;99.90;;;;;;5077397;28;20032;-74
2021/12/10 05:53:31;;;;;;;8.65;3.83;;;-0.60;99.90;;;;;;5059244;28;20043;-75
2021/12/10 05:55:58;;;;;;;7.95;3.80;;;-0.60;99.90;;;;;;5076912;28;20028;-75
2021/12/10 05:58:23;;;;;;;5.82;3.40;;;-0.50;99.90;;;;;;5059342;28;20034;-74
2021/12/10 06:00:54;;;;;;;9.02;3.85;;;-0.50;99.90;;;;;;5076943;28;20033;-75
2021/12/10 06:03:22;;;;;;;9.48;3.72;;;-0.50;99.90;;;;;;5077235;28;20132;-75
2021/12/10 06:05:49;;;;;;;17.55;4.43;;;-0.50;99.90;;;;;;5076990;28;20111;-75
2021/12/10 06:08:15;;;;;;;5.05;3.10;;;-0.40;99.90;;;;;;5058970;28;20033;-75
2021/12/10 06:10:43;;;;;;;6.30;3.30;;;-0.50;99.90;;;;;;5059065;28;20029;-73
2021/12/10 06:13:09;;;;;;;6.22;3.40;;;-0.50;99.90;;;;;;5076817;28;20024;-75
2021/12/10 06:15:36;;;;;;;5.15;2.75;;;-0.50;99.90;;;;;;5059501;28;20452;-74
2021/12/10 06:18:02;;;;;;;6.57;3.50;;;-0.60;99.90;;;;;;5058846;28;20388;-75
2021/12/10 06:20:31;;;;;;;8.93;3.70;;;-0.60;99.90;;;;;;5058624;28;20548;-74
2021/12/10 06:22:59;;;;;;;6.30;3.85;;;-0.60;99.90;;;;;;5058687;28;20052;-74
2021/12/10 06:25:26;;;;;;;12.27;3.88;;;-0.60;99.90;;;;;;5058539;28;20028;-75
2021/12/10 06:27:52;;;;;;;9.10;3.53;;;-0.70;99.90;;;;;;5058543;28;20025;-76
2021/12/10 06:30:22;;;;;;;6.30;3.22;;;-0.70;99.90;;;;;;5061922;28;20127;-74
2021/12/10 06:32:50;;;;;;;5.20;3.05;;;-0.80;99.90;;;;;;5095420;28;20119;-75
2021/12/10 06:35:17;;;;;;;6.05;3.63;;;-0.80;99.90;;;;;;5095795;28;20023;-74
2021/12/10 06:37:44;;;;;;;7.43;3.50;;;-0.90;99.90;;;;;;5096277;28;20483;-74
2021/12/10 06:40:12;;;;;;;13.63;3.58;;;-0.90;99.90;;;;;;5095448;28;20032;-76
2021/12/10 06:42:38;;;;;;;7.35;3.47;;;-0.90;99.90;;;;;;5095281;28;20024;-75
2021/12/10 06:45:08;;;;;;;6.57;4.00;;;-0.90;99.90;;;;;;5096217;28;20126;-76
2021/12/10 06:47:34;;;;;;;9.60;4.18;;;-0.90;99.90;;;;;;5096430;28;20062;-75
2021/12/10 06:50:00;;;;;;;5.95;3.13;;;-1.00;99.90;;;;;;5096332;28;20066;-74
2021/12/10 06:52:26;;;;;;;8.73;3.95;;;-1.00;99.90;;;;;;5094100;28;20020;-75
2021/12/10 06:54:52;;;;;;;10.35;4.38;;;-1.00;99.90;;;;;;5094671;28;20024;-74
2021/12/10 06:57:18;;;;;;;5.00;2.97;;;-1.00;99.90;;;;;;5096540;28;20038;-75
2021/12/10 06:59:44;;;;;;;11.07;3.38;;;-0.90;99.90;;;;;;5095881;28;20032;-75
2021/12/10 07:02:12;;;;;;;9.75;4.28;;;-0.90;99.90;;;;;;5094893;28;20031;-75
2021/12/10 07:04:41;;;;;;;10.17;4.87;;;-0.90;99.90;;;;;;5096199;28;20036;-74
2021/12/10 07:07:08;;;;;;;7.78;4.13;;;-0.90;99.90;;;;;;5096209;28;20048;-74
2021/12/10 07:09:36;;;;;;;8.52;4.20;;;-0.90;99.90;;;;;;5094897;28;20039;-74
2021/12/10 07:12:05;;;;;;;10.80;4.10;;;-0.90;99.90;;;;;;5094715;28;20069;-74
2021/12/10 07:14:31;;;;;;;14.93;5.50;;;-0.90;99.90;;;;;;5094669;28;20085;-75
2021/12/10 07:16:58;;;;;;;13.27;4.80;;;-0.90;99.90;;;;;;5095616;28;20051;-74
2021/12/10 07:19:26;;;;;;;7.35;3.80;;;-0.90;99.90;;;;;;5094530;28;20044;-75
2021/12/10 07:21:53;;;;;;;10.20;4.60;;;-0.90;99.90;;;;;;5095688;28;20020;-74
2021/12/10 07:24:19;;;;;;;18.90;6.22;;;-0.90;99.90;;;;;;5095733;28;20058;-75
2021/12/10 07:26:46;;;;;;;7.88;4.35;;;-0.80;99.90;;;;;;5095313;28;20058;-74
2021/12/10 07:29:13;;;;;;;13.90;5.45;;;-0.80;99.90;;;;;;5095903;28;20028;-74
2021/12/10 07:31:40;;;;;;;6.40;3.72;;;-0.90;99.90;;;;;;5094417;28;20052;-74
2021/12/10 07:34:06;;;;;;;16.55;5.13;;;-0.80;99.90;;;;;;5095614;28;20117;-74
2021/12/10 07:36:32;;;;;;;13.73;6.38;;;-0.80;99.90;;;;;;5094230;28;20456;-74
2021/12/10 07:38:59;;;;;;;11.40;5.50;;;-0.80;99.90;;;;;;5095322;28;20039;-74
2021/12/10 07:41:43;;;;;;;11.40;6.40;;;-0.70;99.90;;;;;;5095408;28;20031;-74
2021/12/10 07:44:11;;;;;;;19.85;6.53;;;-0.70;99.90;;;;;;5095306;28;20444;-74
2021/12/10 07:46:37;;;;;;;14.68;6.63;;;-0.60;99.90;;;;;;5095354;28;20024;-74
2021/12/10 07:49:06;;;;;;;17.17;7.00;;;-0.50;99.90;;;;;;5095403;28;20032;-74
2021/12/10 07:51:32;;;;;;;14.27;6.25;;;-0.40;99.90;;;;;;5093972;28;20081;-74
2021/12/10 07:53:59;;;;;;;13.90;5.72;;;-0.40;99.90;;;;;;5095131;28;20085;-74
2021/12/10 07:56:28;;;;;;;21.20;8.13;;;-0.30;99.90;;;;;;5094317;28;20032;-74
2021/12/10 07:58:55;;;;;;;18.67;6.80;;;-0.30;99.90;;;;;;5093790;28;20036;-74
2021/12/10 08:01:25;;;;;;;16.27;6.10;;;-0.20;99.90;;;;;;5093768;28;20028;-74
2021/12/10 08:03:52;;;;;;;21.05;9.15;;;-0.20;99.90;;;;;;5093730;28;20020;-74
2021/12/10 08:06:19;;;;;;;13.93;7.97;;;-0.10;99.90;;;;;;5093712;28;20038;-74
2021/12/10 08:08:45;;;;;;;17.80;9.65;;;0.00;99.90;;;;;;5093508;28;20024;-74
2021/12/10 08:11:11;;;;;;;23.05;9.43;;;0.00;99.90;;;;;;5094475;28;20471;-74
2021/12/10 08:13:38;;;;;;;22.67;9.95;;;0.10;99.90;;;;;;5093747;28;20071;-74
2021/12/10 08:16:04;;;;;;;24.13;9.60;;;0.30;99.90;;;;;;5093407;28;20085;-74
2021/12/10 08:18:30;;;;;;;23.00;9.85;;;0.40;99.90;;;;;;5095026;28;20024;-74
2021/12/10 08:20:57;;;;;;;21.45;10.43;;;0.70;99.90;;;;;;5094789;28;20078;-74
2021/12/10 08:23:24;;;;;;;19.48;9.38;;;1.00;99.90;;;;;;5094644;28;20028;-75
2021/12/10 08:25:51;;;;;;;19.05;9.63;;;1.30;99.90;;;;;;5093290;28;20020;-75
2021/12/10 08:28:21;;;;;;;18.17;8.85;;;1.70;99.90;;;;;;5093758;28;20024;-75
2021/12/10 08:30:47;;;;;;;25.52;9.48;;;2.10;99.90;;;;;;5087047;28;20051;-74
2021/12/10 08:33:14;;;;;;;18.55;9.68;;;2.30;99.90;;;;;;5056477;28;20104;-74
2021/12/10 08:35:44;;;;;;;26.95;12.40;;;2.30;99.90;;;;;;5074196;28;20024;-73
2021/12/10 08:38:10;;;;;;;21.50;10.48;;;2.30;99.90;;;;;;5056304;28;20089;-74
2021/12/10 08:40:43;;;;;;;20.98;10.35;;;2.20;99.90;;;;;;5074131;28;20028;-74
2021/12/10 08:43:09;;;;;;;36.67;15.45;;;2.00;99.90;;;;;;5056134;28;20020;-74
2021/12/10 08:45:35;;;;;;;25.48;10.75;;;2.20;99.90;;;;;;5056292;28;20047;-74
2021/12/10 08:48:03;;;;;;;18.98;10.57;;;2.40;99.90;;;;;;5056061;28;20035;-74
2021/12/10 08:50:30;;;;;;;18.55;11.00;;;2.80;99.90;;;;;;5074092;28;20024;-74
2021/12/10 08:53:02;;;;;;;17.73;9.30;;;3.30;99.90;;;;;;5073922;28;20099;-74
2021/12/10 08:55:31;;;;;;;15.50;8.60;;;3.80;99.90;;;;;;5073917;28;20032;-74
2021/12/10 08:57:58;;;;;;;15.98;8.90;;;4.20;99.90;;;;;;5055616;28;20024;-74
2021/12/10 09:00:25;;;;;;;19.77;8.90;;;4.40;99.90;;;;;;5055848;28;20040;-74
2021/12/10 09:02:53;;;;;;;15.50;8.25;;;4.40;99.90;;;;;;5056020;28;20024;-74
2021/12/10 09:05:18;;;;;;;14.23;7.88;;;4.70;99.90;;;;;;5055847;28;20475;-74
2021/12/10 09:07:45;;;;;;;11.40;6.30;;;5.20;99.90;;;;;;5073792;28;20021;-74
2021/12/10 09:10:17;;;;;;;9.95;6.15;;;5.50;99.90;;;;;;5073682;28;20037;-74
2021/12/10 09:12:44;;;;;;;8.43;5.93;;;6.10;99.90;;;;;;5055525;28;20024;-74
2021/12/10 09:15:18;;;;;;;6.93;5.28;;;6.50;99.90;;;;;;5073698;28;20028;-74
2021/12/10 09:17:45;;;;;;;7.97;5.85;;;6.80;99.90;;;;;;5056070;28;20404;-75
2021/12/10 09:20:18;;;;;;;7.93;5.63;;;7.30;99.90;;;;;;5055594;28;20468;-74
2021/12/10 09:22:44;;;;;;;8.63;4.85;;;7.60;99.90;;;;;;5056228;28;20368;-75
2021/12/10 09:25:11;;;;;;;7.13;4.68;;;7.90;99.90;;;;;;5055690;28;20116;-74
2021/12/10 09:27:38;;;;;;;8.93;4.63;;;7.80;99.90;;;;;;5055467;28;20035;-75
2021/12/10 09:30:06;;;;;;;9.27;4.93;;;8.10;99.90;;;;;;5073302;28;20028;-74
2021/12/10 09:32:32;;;;;;;8.45;4.60;;;8.40;99.90;;;;;;5055857;28;20020;-74
2021/12/10 09:35:03;;;;;;;10.88;4.43;;;8.70;99.90;;;;;;5073420;28;20380;-75
2021/12/10 09:37:29;;;;;;;7.18;4.63;;;8.90;99.90;;;;;;5056067;28;20518;-75
2021/12/10 09:39:55;;;;;;;10.45;4.05;;;9.00;99.90;;;;;;5073055;28;20037;-74
2021/12/10 09:42:22;;;;;;;7.15;4.28;;;9.10;99.90;;;;;;5055484;28;20036;-74
2021/12/10 09:45:07;;;;;;;6.68;3.67;;;9.30;99.90;;;;;;5055465;28;20123;-74
2021/12/10 09:47:33;;;;;;;6.32;3.65;;;9.40;99.90;;;;;;5055464;28;20108;-75
2021/12/10 09:50:00;;;;;;;4.80;3.47;;;9.00;99.90;;;;;;5073356;28;20060;-74
2021/12/10 09:52:27;;;;;;;6.07;3.10;;;8.80;99.90;;;;;;5073245;28;20460;-73
2021/12/10 09:54:53;;;;;;;4.60;3.30;;;8.60;99.90;;;;;;5055206;28;20388;-74
2021/12/10 09:57:26;;;;;;;5.78;3.58;;;8.60;99.90;;;;;;5055418;28;20059;-74
2021/12/10 09:59:55;;;;;;;4.22;2.70;;;8.00;99.90;;;;;;5055223;28;20033;-74
2021/12/10 10:02:23;;;;;;;4.65;2.95;;;7.70;99.90;;;;;;5055666;28;20021;-74
2021/12/10 10:04:51;;;;;;;4.93;2.53;;;7.40;99.90;;;;;;5072860;28;20515;-75
2021/12/10 10:07:28;;;;;;;6.07;2.50;;;7.00;99.90;;;;;;5074813;28;20092;-74
2021/12/10 10:09:58;;;;;;;4.25;2.75;;;6.90;99.90;;;;;;5076866;28;20035;-74
2021/12/10 10:12:31;;;;;;;4.43;3.03;;;6.80;99.90;;;;;;5058875;28;20024;-73
2021/12/10 10:14:59;;;;;;;6.88;3.45;;;6.60;99.90;;;;;;5076772;28;20418;-74
2021/12/10 10:17:25;;;;;;;7.57;3.97;;;6.50;99.90;;;;;;5076609;28;20134;-73
2021/12/10 10:19:52;;;;;;;15.38;3.50;;;6.40;99.90;;;;;;5058537;28;20082;-73
2021/12/10 10:22:22;;;;;;;5.35;3.22;;;6.50;99.90;;;;;;5059294;28;20044;-73
2021/12/10 10:24:48;;;;;;;5.38;2.83;;;6.50;99.90;;;;;;5058909;28;20119;-73
2021/12/10 10:27:18;;;;;;;5.32;3.30;;;6.60;99.90;;;;;;5076366;28;20146;-74
2021/12/10 10:30:06;;;;;;;5.50;3.38;;;5.90;99.90;;;;;;5076916;28;20435;-73
2021/12/10 10:32:34;;;;;;;5.18;4.15;;;5.60;99.90;;;;;;5076826;28;20032;-73
2021/12/10 10:35:06;;;;;;;10.93;4.05;;;5.50;99.90;;;;;;5058179;28;20029;-73
2021/12/10 10:37:33;;;;;;;6.15;3.38;;;5.50;99.90;;;;;;5058271;28;20507;-73
2021/12/10 10:39:59;;;;;;;8.10;4.30;;;5.40;99.90;;;;;;5076447;28;20037;-72
2021/12/10 10:42:28;;;;;;;8.18;3.75;;;5.10;99.90;;;;;;5076022;28;20430;-72
2021/12/10 10:44:58;;;;;;;7.57;3.75;;;5.30;99.90;;;;;;5076305;28;20027;-72
2021/12/10 10:47:24;;;;;;;6.60;3.58;;;5.60;99.90;;;;;;5058565;28;20039;-73
2021/12/10 10:49:54;;;;;;;6.53;3.67;;;5.90;99.90;;;;;;5076204;28;20113;-73
2021/12/10 10:52:29;;;;;;;10.48;4.45;;;6.50;99.90;;;;;;5076097;28;20097;-73
2021/12/10 10:55:00;;;;;;;10.50;4.28;;;7.00;99.90;;;;;;5076328;28;20100;-73
2021/12/10 10:57:30;;;;;;;7.25;3.72;;;7.40;99.90;;;;;;5076162;28;20028;-73
2021/12/10 11:00:12;;;;;;;7.93;4.60;;;7.60;99.90;;;;;;5076212;28;20028;-73
2021/12/10 11:02:50;;;;;;;9.55;5.18;;;7.80;99.90;;;;;;5058243;28;20119;-73
2021/12/10 11:05:17;;;;;;;9.20;4.90;;;7.60;99.90;;;;;;5058372;28;20043;-73
2021/12/10 11:07:46;;;;;;;6.53;4.78;;;7.90;99.90;;;;;;5075817;28;20028;-73
2021/12/10 11:10:22;;;;;;;8.15;5.10;;;7.60;99.90;;;;;;5075689;28;20028;-73
2021/12/10 11:12:48;;;;;;;10.00;5.40;;;8.00;99.90;;;;;;5075671;28;20376;-72
2021/12/10 11:15:16;;;;;;;6.80;4.28;;;8.00;99.90;;;;;;5075437;28;20507;-73
2021/12/10 11:17:51;;;;;;;12.13;6.38;;;8.10;99.90;;;;;;5057236;28;20032;-73
2021/12/10 11:20:23;;;;;;;11.35;6.03;;;8.00;99.20;;;;;;5057376;28;20147;-73
2021/12/10 11:22:59;;;;;;;9.85;5.50;;;8.30;99.90;;;;;;5058049;28;20029;-73
2021/12/10 11:25:41;;;;;;;11.57;6.50;;;8.50;99.50;;;;;;5057641;28;20385;-73
2021/12/10 11:28:12;;;;;;;10.45;6.13;;;9.00;98.50;;;;;;5075677;28;20048;-72
2021/12/10 11:30:51;;;;;;;8.70;5.53;;;9.30;96.80;;;;;;5075278;28;20075;-73
2021/12/10 11:33:23;;;;;;;8.43;5.10;;;9.20;96.90;;;;;;5075384;28;20060;-73
2021/12/10 11:35:53;;;;;;;9.88;5.93;;;8.70;96.90;;;;;;5075333;28;20024;-73
2021/12/10 11:38:31;;;;;;;8.45;5.57;;;8.90;98.30;;;;;;5057368;28;20397;-73
2021/12/10 11:41:04;;;;;;;8.48;5.47;;;8.80;97.90;;;;;;5074726;28;20492;-72
2021/12/10 11:43:56;;;;;;;12.10;6.15;;;8.60;98.70;;;;;;5075468;28;20017;-73
2021/12/10 11:46:46;;;;;;;10.27;5.68;;;8.80;97.90;;;;;;5057347;28;20484;-73
2021/12/10 11:49:14;;;;;;;13.85;6.70;;;8.00;97.50;;;;;;5057300;28;20036;-72
2021/12/10 11:51:59;;;;;;;12.40;7.07;;;7.10;99.90;;;;;;5075237;28;20110;-72
2021/12/10 11:54:31;;;;;;;10.77;6.35;;;6.20;99.90;;;;;;5057422;28;20035;-72
2021/12/10 11:57:25;;;;;;;11.60;6.25;;;5.60;99.90;;;;;;5074653;28;20027;-73
2021/12/10 12:00:06;;;;;;;10.18;5.57;;;4.90;99.90;;;;;;5074758;28;20060;-73
2021/12/10 12:02:36;;;;;;;12.38;6.90;;;4.40;99.90;;;;;;5074830;28;20025;-72
2021/12/10 12:05:09;;;;;;;10.93;6.43;;;3.90;99.90;;;;;;5056735;28;20040;-73
2021/12/10 12:07:48;;;;;;;11.13;6.43;;;3.60;99.90;;;;;;5074728;28;20087;-73
2021/12/10 12:10:48;;;;;;;14.68;6.63;;;3.50;99.90;;;;;;5074699;28;20346;-72
2021/12/10 12:15:55;;;;;;;14.55;6.93;;;2.80;99.90;;;;;;5074477;28;20029;-72
2021/12/10 12:18:26;;;;;;;12.05;6.38;;;2.60;99.90;;;;;;5074618;28;20028;-71
2021/12/10 12:26:50;;;;;;;13.45;6.85;;;2.00;99.90;;;;;;5074242;28;20055;-72
2021/12/10 12:29:18;;;;;;;17.88;6.75;;;2.00;99.90;;;;;;5074089;28;20028;-71
2021/12/10 12:31:51;;;;;;;16.90;6.88;;;2.20;99.90;;;;;;5074508;28;20479;-72
2021/12/10 12:34:18;;;;;;;17.27;7.57;;;2.20;99.90;;;;;;5073950;28;20048;-72
2021/12/10 12:37:00;;;;;;;18.83;8.75;;;2.30;99.90;;;;;;5074128;28;20027;-71
2021/12/10 12:39:38;;;;;;;21.63;8.20;;;2.30;99.90;;;;;;5056261;28;20029;-71
2021/12/10 12:42:20;;;;;;;18.33;7.15;;;2.30;99.90;;;;;;5056381;28;20115;-71
2021/12/10 12:44:50;;;;;;;18.48;7.75;;;2.20;99.90;;;;;;5056570;28;20029;-72
2021/12/10 12:47:36;;;;;;;18.42;7.55;;;2.10;99.90;;;;;;5073947;28;20028;-72
2021/12/10 12:50:21;;;;;;;18.27;6.82;;;2.10;99.90;;;;;;5056864;28;20056;-72
2021/12/10 12:52:47;;;;;;;17.95;7.78;;;2.00;99.90;;;;;;5056195;28;20024;-72
2021/12/10 12:55:29;;;;;;;14.80;6.97;;;1.90;99.90;;;;;;5074101;28;20349;-73
2021/12/10 12:58:10;;;;;;;17.65;7.40;;;1.90;99.90;;;;;;5056289;28;20028;-71
2021/12/10 13:00:51;;;;;;;19.27;7.95;;;1.80;99.90;;;;;;5073788;28;20032;-71
2021/12/10 13:06:46;;;;;;;23.38;8.80;;;1.90;99.90;;;;;;5073518;28;20499;-70
2021/12/10 13:09:23;;;;;;;17.52;7.40;;;1.80;99.90;;;;;;5042837;28;20036;-71
2021/12/10 13:14:53;;;;;;;20.45;8.23;;;1.60;99.90;;;;;;5073767;28;20100;-72
2021/12/10 13:17:24;;;;;;;19.27;7.40;;;1.60;99.90;;;;;;5055741;28;20092;-72
2021/12/10 13:19:53;;;;;;;19.02;7.82;;;1.60;99.90;;;;;;5055878;28;20032;-71
2021/12/10 13:22:24;;;;;;;20.48;7.75;;;1.60;99.90;;;;;;5073675;28;20033;-71
2021/12/10 13:25:06;;;;;;;20.67;7.93;;;1.60;99.90;;;;;;5055919;28;20456;-71